KBXK

Details ICAO KBXK (BXK)
Name BUCKEYE MUNI
Region United States
Timezone America/Phoenix (UTC-7.0)
Plans Departing 1
Arriving 0
Stats Elevation 1,021 ft / 311 m (AMSL)
Location 33.420984° -112.685719°
Runways 3
Magnetic Variation 10.515° E
Sunrise 2017-12-15 14:28:56 UTC / 2017-12-15 07:28:56 Local
Sunset 2017-12-16 00:25:57 UTC / 2017-12-15 17:25:57 Local
Advertisement - Login to hide

Runways

ID Width Length Bearing (true) Bearing (mag) Surface Threshold Offset Overrun Length
05 300 ft / 91 m 3,304 ft / 1,007 m 60.60° 50.08° Asphalt 0 ft / 0 m 0 ft / 0 m
11 270 ft / 82 m 3,426 ft / 1,044 m 120.21° 109.69° Asphalt 0 ft / 0 m 0 ft / 0 m
17 75 ft / 23 m 5,515 ft / 1,681 m 182.02° 171.50° Asphalt 0 ft / 0 m 0 ft / 0 m
23 300 ft / 91 m 3,304 ft / 1,007 m 240.60° 230.08° Asphalt 0 ft / 0 m 0 ft / 0 m
29 270 ft / 82 m 3,426 ft / 1,044 m 300.22° 289.70° Asphalt 0 ft / 0 m 0 ft / 0 m
35 75 ft / 23 m 5,515 ft / 1,681 m 2.02° 351.50° Asphalt 0 ft / 0 m 0 ft / 0 m

Map

Weather


0- 5 10 15 20 25 30 35+ Temperature / ° C

Clouds and Precipitation
Forecast for 2017-12-15 18:00 UTC. Updated an hour ago

Ground ~20,000 ft ~40,000 ft Winds

METAR

KBXK 151355Z AUTO 07010KT 10SM CLR 13/M15 A3018 RMK AO1

TAF

Not found

Frequencies

Unicom 122.80 MHz CTAF/UNICOM
Warning: Do not use this data for real-world aviation or navigation. No guarantee of current accuracy is given.